Time;durP1;ratioP1;P1;durP2;ratioP2;P2;SDS_P1;SDS_P2;PMS_P1;PMS_P2;Temp;Humidity;BMP_temperature;BMP_pressure;BME280_temperature;BME280_humidity;BME280_pressure;Samples;Min_cycle;Max_cycle;Signal;HPM_P1;HPM_P2
2023/03/17 00:01:08;;;;;;;8.95;6.03;;;;;;;1.38;76.02;94945.25;5090657;28;20024;-77
2023/03/17 00:03:40;;;;;;;7.32;5.50;;;;;;;1.38;75.83;94935.00;5104920;28;20035;-77
2023/03/17 00:06:18;;;;;;;7.57;5.47;;;;;;;1.43;76.25;94958.66;5107344;28;20032;-77
2023/03/17 00:08:45;;;;;;;8.32;6.03;;;;;;;1.25;76.41;94944.13;5091428;28;20031;-77
2023/03/17 00:11:15;;;;;;;8.30;5.47;;;;;;;1.38;76.19;94941.84;5107127;28;20039;-77
2023/03/17 00:13:41;;;;;;;6.68;5.03;;;;;;;1.41;75.93;94944.28;5070736;28;20539;-77
2023/03/17 00:16:11;;;;;;;7.97;5.57;;;;;;;1.52;75.94;94960.81;5073399;28;20110;-77
2023/03/17 00:18:37;;;;;;;7.53;4.90;;;;;;;1.03;75.91;94887.94;5067806;28;20112;-77
2023/03/17 00:21:03;;;;;;;7.60;5.15;;;;;;;1.41;75.36;94967.31;5108459;28;20016;-77
2023/03/17 00:23:28;;;;;;;6.88;5.10;;;;;;;1.43;75.39;94962.97;5070925;28;20028;-77
2023/03/17 00:25:56;;;;;;;8.32;5.47;;;;;;;1.24;76.21;94948.41;5091314;28;20035;-77
2023/03/17 00:28:23;;;;;;;10.35;6.75;;;;;;;1.23;75.76;94962.13;5106316;28;20087;-77
2023/03/17 00:30:53;;;;;;;9.60;6.68;;;;;;;1.30;76.13;94958.38;5108895;28;20541;-77
2023/03/17 00:33:19;;;;;;;7.15;5.15;;;;;;;1.04;76.57;94961.25;5071571;28;20342;-77
2023/03/17 00:35:45;;;;;;;9.02;5.55;;;;;;;1.14;76.81;94954.00;5089956;28;20061;-78
2023/03/17 01:05:56;;;;;;;8.10;6.93;;;;;;;1.62;75.78;94960.41;5145976;27;20396;-79
2023/03/17 01:08:22;;;;;;;7.20;5.82;;;;;;;1.66;75.34;94965.31;5127241;27;20043;-79
2023/03/17 01:10:48;;;;;;;6.53;5.60;;;;;;;1.52;75.81;94947.19;5106806;28;20545;-79
2023/03/17 01:13:14;;;;;;;7.22;5.72;;;;;;;1.52;75.22;94954.88;5122196;28;20097;-79
2023/03/17 01:15:41;;;;;;;7.38;5.40;;;;;;;1.34;76.06;94954.78;5106410;28;20481;-79
2023/03/17 01:18:09;;;;;;;6.80;4.88;;;;;;;1.19;76.03;94941.84;5106916;28;20027;-79
2023/03/17 01:20:34;;;;;;;6.50;4.93;;;;;;;1.25;76.78;94965.41;5089786;28;20031;-79
2023/03/17 01:23:01;;;;;;;6.57;5.07;;;;;;;1.36;76.60;94979.47;5087461;28;20046;-79
2023/03/17 01:25:27;;;;;;;9.20;6.05;;;;;;;1.29;76.52;94971.25;5107209;28;20744;-79
2023/03/17 01:27:53;;;;;;;7.28;5.45;;;;;;;1.14;76.59;94947.16;5090818;28;20024;-78
2023/03/17 01:30:18;;;;;;;9.07;5.90;;;;;;;1.29;76.44;94972.09;5090164;28;20024;-79
2023/03/17 01:32:44;;;;;;;8.93;6.35;;;;;;;1.17;76.72;94961.53;5122897;28;20205;-79
2023/03/17 01:35:10;;;;;;;8.05;5.97;;;;;;;1.27;76.78;94981.53;5123421;27;20601;-80
2023/03/17 01:37:36;;;;;;;7.43;5.78;;;;;;;1.30;77.92;94978.84;5106979;28;20031;-79
2023/03/17 01:40:02;;;;;;;8.00;5.85;;;;;;;1.41;77.54;94983.50;5089461;28;20043;-79
2023/03/17 01:42:27;;;;;;;8.73;5.93;;;;;;;1.40;77.45;94979.28;5103922;28;20023;-79
2023/03/17 01:45:00;;;;;;;7.72;5.68;;;;;;;1.25;77.26;94955.19;5123846;27;20036;-79
2023/03/17 01:47:27;;;;;;;7.20;5.35;;;;;;;1.42;76.81;94982.63;5102548;28;20042;-79
2023/03/17 01:49:53;;;;;;;6.68;5.55;;;;;;;1.45;77.05;94986.75;5138007;27;20031;-80
2023/03/17 01:52:19;;;;;;;7.32;5.63;;;;;;;1.33;76.19;94948.00;5103919;28;20551;-80
2023/03/17 01:55:00;;;;;;;7.05;5.50;;;;;;;1.43;76.42;94979.16;5106425;28;20104;-79
2023/03/17 01:57:45;;;;;;;9.43;5.97;;;;;;;1.42;75.94;94986.88;5104006;28;20028;-79
2023/03/17 02:00:13;;;;;;;7.18;5.80;;;;;;;0.98;76.69;94928.28;5123618;27;20027;-79
2023/03/17 02:02:40;;;;;;;7.07;5.25;;;;;;;1.08;76.74;94943.13;5104038;28;20063;-79
2023/03/17 02:05:09;;;;;;;7.13;5.53;;;;;;;1.05;77.47;94937.31;5102685;28;20515;-79
2023/03/17 02:07:34;;;;;;;6.55;4.95;;;;;;;1.07;77.44;94935.53;5093087;28;20050;-79
2023/03/17 02:10:00;;;;;;;7.80;5.10;;;;;;;1.43;77.11;94989.41;5092386;28;20472;-79
2023/03/17 02:12:26;;;;;;;8.10;5.68;;;;;;;1.50;76.61;94995.88;5090238;28;20500;-79
2023/03/17 02:14:52;;;;;;;6.57;5.03;;;;;;;1.44;76.65;94998.72;5092481;28;20048;-79
2023/03/17 02:17:18;;;;;;;6.63;5.25;;;;;;;1.24;76.63;94958.66;5110461;28;20030;-78
2023/03/17 02:19:44;;;;;;;7.65;5.00;;;;;;;1.38;76.58;94986.19;5092422;28;20051;-79
2023/03/17 02:22:10;;;;;;;6.43;5.10;;;;;;;1.22;76.82;94965.56;5106747;28;20027;-79
2023/03/17 02:24:42;;;;;;;6.50;4.60;;;;;;;1.36;76.76;94975.19;5092451;28;20520;-79
2023/03/17 02:27:10;;;;;;;6.78;4.75;;;;;;;1.49;76.58;95001.09;5091927;28;20012;-79
2023/03/17 02:29:36;;;;;;;6.82;4.93;;;;;;;1.47;76.00;95002.88;5143248;27;20067;-79
2023/03/17 02:32:03;;;;;;;6.05;4.40;;;;;;;1.50;75.89;95001.00;5073393;28;20034;-79
2023/03/17 02:34:28;;;;;;;6.57;4.63;;;;;;;1.53;76.88;95013.69;5093058;28;20423;-79
2023/03/17 02:36:54;;;;;;;6.40;4.25;;;;;;;1.47;76.46;94992.63;5075412;28;20028;-79
2023/03/17 02:39:20;;;;;;;5.22;3.97;;;;;;;1.55;77.03;95016.19;5109648;28;20413;-79
2023/03/17 02:41:45;;;;;;;5.15;4.00;;;;;;;1.52;76.92;95016.31;5073914;28;20020;-79
2023/03/17 02:44:11;;;;;;;4.85;3.85;;;;;;;1.36;77.13;94982.03;5108353;28;20474;-79
2023/03/17 02:46:37;;;;;;;5.35;3.88;;;;;;;1.60;77.08;95021.94;5091685;28;20048;-79
2023/03/17 02:49:02;;;;;;;5.00;3.72;;;;;;;1.61;76.58;95028.69;5108757;28;20031;-79
2023/03/17 02:51:27;;;;;;;4.63;3.67;;;;;;;1.58;76.59;95022.91;5075070;28;20027;-79
2023/03/17 02:53:53;;;;;;;5.18;3.90;;;;;;;1.57;77.10;95024.63;5089869;28;20514;-79
2023/03/17 02:56:18;;;;;;;4.85;3.40;;;;;;;1.49;76.54;95003.66;5109533;28;20051;-79
2023/03/17 02:58:44;;;;;;;5.22;3.67;;;;;;;1.67;76.52;95025.88;5091434;28;20058;-79
2023/03/17 03:01:09;;;;;;;4.50;3.67;;;;;;;1.50;76.62;94993.31;5091292;28;20035;-79
2023/03/17 03:03:35;;;;;;;4.95;3.80;;;;;;;1.67;76.54;95025.03;5072167;28;20044;-79
2023/03/17 03:06:01;;;;;;;5.82;3.80;;;;;;;1.64;76.19;95020.88;5091893;28;20024;-79
2023/03/17 03:08:27;;;;;;;7.07;4.20;;;;;;;1.70;75.91;95027.47;5108636;28;20038;-79
2023/03/17 03:10:53;;;;;;;7.50;4.75;;;;;;;1.63;76.42;95026.91;5074028;28;20196;-79
2023/03/17 03:13:19;;;;;;;10.23;5.57;;;;;;;1.55;75.78;95018.72;5088434;28;20016;-79
2023/03/17 03:15:44;;;;;;;7.63;4.30;;;;;;;1.52;76.62;95019.69;5107314;28;20457;-79
2023/03/17 03:18:11;;;;;;;8.57;4.93;;;;;;;1.42;76.73;95015.03;5106707;28;20108;-80
2023/03/17 03:20:37;;;;;;;4.78;3.30;;;;;;;1.54;77.13;95040.97;5090104;28;20031;-79
2023/03/17 03:23:02;;;;;;;4.97;3.63;;;;;;;1.49;77.23;95024.97;5105991;28;20073;-79
2023/03/17 03:25:28;;;;;;;5.35;3.50;;;;;;;1.66;76.73;95039.56;5107781;28;20031;-79
2023/03/17 03:27:54;;;;;;;5.28;3.58;;;;;;;1.60;76.50;95037.28;5090952;28;20039;-79
2023/03/17 03:30:20;;;;;;;5.10;3.50;;;;;;;1.69;76.80;95047.13;5090930;28;20035;-79
2023/03/17 03:32:46;;;;;;;5.65;4.18;;;;;;;1.68;76.86;95045.47;5106140;28;20051;-79
2023/03/17 03:35:11;;;;;;;5.22;3.70;;;;;;;1.52;77.60;95047.88;5091597;28;20092;-79
2023/03/17 03:37:37;;;;;;;5.78;4.28;;;;;;;1.54;76.79;95035.84;5108037;28;20023;-79
2023/03/17 03:40:03;;;;;;;5.53;4.18;;;;;;;1.52;76.82;95037.63;5073415;28;20055;-79
2023/03/17 03:42:28;;;;;;;5.07;4.22;;;;;;;1.54;77.34;95032.44;5105387;28;20107;-79
2023/03/17 03:44:54;;;;;;;6.38;4.90;;;;;;;1.67;77.00;95056.63;5084600;28;20031;-79
2023/03/17 03:47:19;;;;;;;5.80;4.72;;;;;;;1.65;76.36;95035.38;5090124;28;20564;-79
2023/03/17 03:49:45;;;;;;;5.80;4.65;;;;;;;1.66;76.53;95052.38;5090391;28;20032;-79
2023/03/17 03:52:10;;;;;;;6.10;4.93;;;;;;;1.47;76.86;95031.88;5088643;28;20026;-79
2023/03/17 03:54:36;;;;;;;5.85;4.35;;;;;;;1.66;76.37;95065.19;5089967;28;20114;-79
2023/03/17 03:57:01;;;;;;;5.25;4.05;;;;;;;1.66;76.40;95064.38;5090250;28;20031;-79
2023/03/17 03:59:28;;;;;;;6.18;4.32;;;;;;;1.64;76.61;95073.84;5090651;28;20043;-79
2023/03/17 04:01:53;;;;;;;5.00;3.83;;;;;;;1.70;76.54;95064.16;5106013;28;20039;-79
2023/03/17 04:04:19;;;;;;;5.00;3.30;;;;;;;1.66;76.76;95060.06;5106289;28;20055;-79
2023/03/17 04:06:45;;;;;;;5.05;3.83;;;;;;;1.63;76.39;95078.13;5108267;28;20026;-79
2023/03/17 04:09:11;;;;;;;6.75;3.92;;;;;;;1.64;76.16;95078.97;5108464;28;20053;-79
2023/03/17 04:11:36;;;;;;;5.10;3.45;;;;;;;1.62;76.22;95070.53;5088583;28;20487;-79
2023/03/17 04:14:02;;;;;;;4.55;3.63;;;;;;;1.61;75.95;95073.97;5068510;28;20036;-79
2023/03/17 04:16:28;;;;;;;5.68;3.78;;;;;;;1.47;76.56;95077.97;5071245;28;20489;-79
2023/03/17 04:18:53;;;;;;;6.88;4.40;;;;;;;1.33;76.88;95050.38;5106350;28;20039;-79
2023/03/17 04:21:20;;;;;;;6.78;4.60;;;;;;;1.20;77.21;95038.19;5090079;28;20028;-79
2023/03/17 04:23:46;;;;;;;5.85;4.32;;;;;;;1.37;77.04;95073.31;5103525;28;20063;-80
2023/03/17 04:26:12;;;;;;;7.35;5.03;;;;;;;1.39;77.03;95074.06;5106022;28;20074;-79
2023/03/17 04:28:38;;;;;;;5.20;3.78;;;;;;;1.48;77.05;95083.94;5089279;28;20519;-79
2023/03/17 04:31:04;;;;;;;5.55;3.90;;;;;;;1.39;77.10;95066.38;5091214;28;20028;-80
2023/03/17 04:33:29;;;;;;;4.78;3.60;;;;;;;1.55;77.40;95098.13;5070269;28;20039;-79
2023/03/17 04:35:55;;;;;;;5.53;3.60;;;;;;;1.41;77.29;95097.88;5089546;28;20492;-79
2023/03/17 04:38:20;;;;;;;4.95;3.50;;;;;;;1.40;77.53;95106.47;5105743;28;20051;-79
2023/03/17 04:40:46;;;;;;;5.35;3.97;;;;;;;1.49;77.55;95104.34;5070564;28;20032;-79
2023/03/17 04:43:11;;;;;;;7.55;5.15;;;;;;;1.54;77.30;95096.47;5104016;28;20027;-79
2023/03/17 04:45:37;;;;;;;10.20;8.15;;;;;;;1.23;77.09;95041.47;5092709;28;20412;-79
2023/03/17 04:48:03;;;;;;;6.93;4.60;;;;;;;1.58;76.89;95099.72;5089512;28;20103;-80
2023/03/17 04:50:28;;;;;;;6.03;3.95;;;;;;;1.61;76.94;95102.16;5072448;28;20032;-79
2023/03/17 04:52:54;;;;;;;5.57;3.80;;;;;;;1.41;76.79;95072.28;5086841;28;20028;-79
2023/03/17 04:55:19;;;;;;;5.82;3.85;;;;;;;1.45;77.38;95091.72;5089090;28;20039;-79
2023/03/17 04:57:45;;;;;;;5.53;3.78;;;;;;;1.55;77.20;95114.31;5089682;28;20032;-79
2023/03/17 05:00:11;;;;;;;4.97;3.50;;;;;;;1.39;77.24;95080.00;5106295;28;20027;-79
2023/03/17 05:02:37;;;;;;;5.07;3.38;;;;;;;1.66;76.99;95103.59;5071056;28;20028;-79
2023/03/17 05:05:03;;;;;;;4.70;3.92;;;;;;;1.61;76.99;95112.38;5105971;28;20056;-80
2023/03/17 05:07:29;;;;;;;4.63;3.67;;;;;;;1.33;77.71;95075.97;5106396;28;20111;-79
2023/03/17 05:09:55;;;;;;;5.57;4.20;;;;;;;1.56;77.99;95117.69;5072699;28;20031;-79
2023/03/17 05:12:21;;;;;;;5.43;3.75;;;;;;;1.31;77.53;95082.91;5092869;28;20031;-79
2023/03/17 05:14:46;;;;;;;7.80;5.65;;;;;;;1.60;77.12;95134.63;5075969;28;20095;-79
2023/03/17 05:17:12;;;;;;;7.32;5.20;;;;;;;1.62;76.92;95137.13;5076036;28;20024;-80
2023/03/17 05:19:38;;;;;;;7.10;5.13;;;;;;;1.67;76.91;95141.16;5067931;28;20036;-81
2023/03/17 05:22:03;;;;;;;8.15;6.30;;;;;;;1.60;76.43;95139.72;5085816;28;20031;-80
2023/03/17 05:24:29;;;;;;;7.38;5.22;;;;;;;1.58;76.26;95149.19;5106657;28;20040;-79
2023/03/17 05:26:54;;;;;;;7.07;4.85;;;;;;;1.65;76.35;95154.91;5106050;28;20024;-79
2023/03/17 05:29:20;;;;;;;6.88;5.25;;;;;;;1.59;76.57;95158.56;5122295;27;20305;-79
2023/03/17 05:31:46;;;;;;;6.40;5.18;;;;;;;1.65;76.36;95167.72;5089554;28;20028;-79
2023/03/17 05:34:11;;;;;;;6.35;4.93;;;;;;;1.61;76.88;95140.56;5108664;28;20130;-79
2023/03/17 05:36:37;;;;;;;8.95;6.18;;;;;;;1.42;77.19;95123.44;5072167;28;20024;-79
2023/03/17 05:39:03;;;;;;;13.18;8.27;;;;;;;1.63;76.01;95160.09;5105927;28;20034;-78
2023/03/17 05:41:28;;;;;;;11.13;7.70;;;;;;;1.51;75.76;95135.00;5107730;28;20081;-78
2023/03/17 05:43:54;;;;;;;15.02;7.75;;;;;;;1.71;75.61;95160.59;5111075;28;20048;-79
2023/03/17 05:46:21;;;;;;;19.23;11.77;;;;;;;1.42;77.49;95138.78;5110107;28;20110;-79
2023/03/17 05:48:46;;;;;;;29.25;17.58;;;;;;;1.46;77.26;95124.13;5076613;28;20024;-79
2023/03/17 05:51:12;;;;;;;23.77;12.82;;;;;;;1.46;76.76;95124.13;5092285;28;20031;-79
2023/03/17 05:53:37;;;;;;;17.95;10.43;;;;;;;1.82;77.89;95172.13;5112895;27;20039;-79
2023/03/17 05:56:03;;;;;;;12.95;7.72;;;;;;;1.85;76.70;95174.56;5109926;28;20035;-79
2023/03/17 05:58:28;;;;;;;10.90;7.28;;;;;;;1.61;76.48;95128.56;5115159;27;20120;-79
2023/03/17 06:00:54;;;;;;;9.43;6.75;;;;;;;1.85;75.95;95165.13;5108925;27;20027;-79
2023/03/17 06:03:21;;;;;;;9.70;6.95;;;;;;;1.89;76.24;95173.50;5092395;28;20562;-79
2023/03/17 06:05:46;;;;;;;10.73;7.28;;;;;;;1.92;76.12;95187.03;5075411;28;21258;-78
2023/03/17 06:08:12;;;;;;;31.38;14.25;;;;;;;2.00;75.14;95186.69;5111098;28;20019;-79
2023/03/17 06:10:38;;;;;;;55.83;23.35;;;;;;;1.99;74.55;95187.59;5109607;28;20110;-79
2023/03/17 06:13:03;;;;;;;50.22;23.20;;;;;;;1.92;75.18;95186.19;5092746;28;20050;-79
2023/03/17 06:15:29;;;;;;;38.17;17.73;;;;;;;1.81;76.24;95185.81;5092774;28;20035;-78
2023/03/17 06:17:54;;;;;;;19.70;10.25;;;;;;;1.98;75.83;95196.19;5092110;28;20032;-79
2023/03/17 06:20:23;;;;;;;13.60;7.78;;;;;;;2.05;75.67;95207.81;5107188;28;20034;-80
2023/03/17 06:22:49;;;;;;;19.23;11.27;;;;;;;2.07;75.93;95221.41;5109602;28;20032;-80
2023/03/17 06:25:14;;;;;;;13.40;9.02;;;;;;;2.03;76.26;95219.03;5108098;28;20032;-80
2023/03/17 06:27:41;;;;;;;14.95;9.32;;;;;;;1.79;76.74;95181.59;5126858;27;20035;-80
2023/03/17 06:30:07;;;;;;;14.73;8.73;;;;;;;1.94;76.41;95210.03;5095735;28;20126;-79
2023/03/17 06:32:33;;;;;;;13.70;8.98;;;;;;;2.08;75.96;95222.25;5074274;28;20521;-80
2023/03/17 06:34:58;;;;;;;64.32;28.65;;;;;;;2.15;75.71;95232.19;5091903;28;20039;-80
2023/03/17 06:37:24;;;;;;;90.47;35.83;;;;;;;2.18;75.45;95237.16;5108983;28;20640;-80
2023/03/17 06:39:49;;;;;;;35.00;16.35;;;;;;;2.21;75.23;95220.81;5106343;28;20031;-80
2023/03/17 06:42:15;;;;;;;33.70;15.40;;;;;;;2.24;74.74;95213.00;5108202;28;20054;-81
2023/03/17 06:44:40;;;;;;;25.52;13.18;;;;;;;2.35;74.99;95230.47;5090773;28;20028;-80
2023/03/17 06:47:06;;;;;;;23.13;13.95;;;;;;;2.24;74.90;95207.88;5107947;28;20024;-78
2023/03/17 06:49:31;;;;;;;19.20;11.40;;;;;;;2.31;73.86;95213.53;5106896;27;20476;-80
2023/03/17 06:51:57;;;;;;;13.27;8.93;;;;;;;2.46;72.83;95230.84;5092217;27;20039;-80
2023/03/17 06:54:24;;;;;;;57.33;30.63;;;;;;;2.61;72.01;95237.81;5075165;28;20043;-80
2023/03/17 06:56:52;;;;;;;21.30;12.77;;;;;;;2.29;73.55;95179.47;5091617;28;20032;-81
2023/03/17 06:59:18;;;;;;;9.98;6.95;;;;;;;2.53;73.50;95216.00;5089511;28;20047;-81
2023/03/17 07:01:45;;;;;;;11.20;7.50;;;;;;;2.70;73.71;95236.56;5108541;28;20020;-81
2023/03/17 07:04:11;;;;;;;9.35;6.25;;;;;;;2.73;73.51;95231.34;5108929;27;20051;-81
2023/03/17 07:06:36;;;;;;;36.35;20.35;;;;;;;2.70;72.87;95198.09;5109373;28;20028;-82
2023/03/17 07:09:02;;;;;;;44.05;26.30;;;;;;;2.93;71.47;95219.31;5091866;28;20119;-81
2023/03/17 07:11:29;;;;;;;27.80;16.27;;;;;;;2.99;71.44;95226.72;5090572;28;20093;-81
2023/03/17 07:13:55;;;;;;;12.18;7.40;;;;;;;3.06;71.90;95236.63;5107289;27;20036;-81
2023/03/17 07:16:21;;;;;;;6.70;5.28;;;;;;;2.89;70.85;95204.03;5109188;27;20413;-81
2023/03/17 07:18:46;;;;;;;14.35;8.13;;;;;;;3.18;70.49;95231.84;5108193;28;20032;-81
2023/03/17 07:21:12;;;;;;;9.45;5.93;;;;;;;3.19;70.76;95238.63;5090368;28;20027;-81
2023/03/17 07:23:37;;;;;;;7.50;5.22;;;;;;;3.23;70.94;95235.84;5107935;28;20038;-81
2023/03/17 07:26:03;;;;;;;33.10;18.65;;;;;;;3.26;71.01;95238.28;5073852;28;21456;-82
2023/03/17 07:28:29;;;;;;;14.77;9.13;;;;;;;3.33;70.77;95237.06;5127578;27;20405;-82
2023/03/17 07:30:56;;;;;;;18.55;12.95;;;;;;;3.22;69.68;95207.69;5094650;28;20098;-81
2023/03/17 07:33:22;;;;;;;16.20;11.48;;;;;;;3.25;69.61;95210.09;5112795;28;21074;-81
2023/03/17 07:35:48;;;;;;;12.18;6.88;;;;;;;3.31;69.22;95227.78;5110642;28;20043;-82
2023/03/17 07:38:15;;;;;;;7.20;5.25;;;;;;;3.56;69.15;95240.25;5113069;28;20035;-82
2023/03/17 07:40:41;;;;;;;13.43;9.50;;;;;;;3.55;68.69;95226.59;5109777;28;20198;-82
2023/03/17 07:43:07;;;;;;;14.68;10.55;;;;;;;3.71;68.60;95256.69;5075861;28;20528;-82
2023/03/17 07:45:34;;;;;;;24.48;18.17;;;;;;;3.53;68.06;95197.56;5111634;28;20028;-82
2023/03/17 07:48:01;;;;;;;14.15;10.93;;;;;;;3.61;67.88;95209.22;5094970;28;20084;-82
2023/03/17 07:50:27;;;;;;;10.73;8.43;;;;;;;3.62;67.36;95208.31;5094735;28;20109;-82
2023/03/17 07:52:52;;;;;;;17.25;13.23;;;;;;;3.97;67.36;95257.97;5093697;28;20481;-82
2023/03/17 07:55:18;;;;;;;9.68;7.10;;;;;;;3.99;66.65;95266.44;5108879;28;20036;-82
2023/03/17 07:57:43;;;;;;;7.20;5.30;;;;;;;3.91;67.37;95242.84;5109225;28;20535;-82
2023/03/17 08:00:09;;;;;;;6.45;4.63;;;;;;;3.85;66.22;95233.72;5109222;28;20406;-82
2023/03/17 08:02:35;;;;;;;5.05;3.80;;;;;;;3.99;65.40;95254.41;5109104;28;20023;-82
2023/03/17 08:05:02;;;;;;;6.40;4.30;;;;;;;3.79;65.16;95229.69;5091602;28;20148;-83
2023/03/17 08:07:28;;;;;;;14.65;9.85;;;;;;;3.83;65.66;95221.84;5109053;28;20481;-82
2023/03/17 08:09:53;;;;;;;9.98;7.63;;;;;;;4.18;66.02;95251.75;5110890;28;20028;-83
2023/03/17 08:12:19;;;;;;;7.80;4.40;;;;;;;4.07;65.11;95235.19;5112048;28;20032;-82
2023/03/17 08:14:44;;;;;;;4.90;3.20;;;;;;;4.35;64.26;95268.06;5111055;28;20122;-82
2023/03/17 08:17:10;;;;;;;4.82;3.58;;;;;;;4.10;64.77;95228.16;5093841;28;20447;-82
2023/03/17 08:19:35;;;;;;;5.43;4.53;;;;;;;4.41;64.74;95265.19;5076923;28;20031;-83
2023/03/17 08:22:01;;;;;;;9.98;7.40;;;;;;;4.35;64.45;95250.88;5110776;28;20038;-84
2023/03/17 08:24:26;;;;;;;8.10;4.72;;;;;;;4.44;63.68;95272.72;5110853;28;20035;-83
2023/03/17 08:26:52;;;;;;;17.27;12.25;;;;;;;4.54;63.44;95266.22;5112144;28;20412;-83
2023/03/17 08:29:19;;;;;;;7.57;6.28;;;;;;;4.30;65.44;95222.00;5094163;28;20024;-83
2023/03/17 08:31:44;;;;;;;6.80;5.43;;;;;;;4.39;65.76;95238.69;5110717;28;20053;-83
2023/03/17 08:34:10;;;;;;;8.00;5.38;;;;;;;4.73;65.00;95270.38;5076734;28;20493;-83
2023/03/17 08:36:35;;;;;;;9.77;6.82;;;;;;;4.66;64.59;95264.75;5110822;28;20035;-83
2023/03/17 08:39:01;;;;;;;8.18;6.10;;;;;;;4.71;64.63;95257.59;5110798;28;20099;-83
2023/03/17 08:41:27;;;;;;;12.65;8.10;;;;;;;4.62;63.28;95224.63;5093600;28;20072;-83
2023/03/17 08:43:53;;;;;;;10.25;7.93;;;;;;;4.80;63.98;95271.72;5093527;28;20043;-84
2023/03/17 08:46:23;;;;;;;12.88;9.10;;;;;;;4.87;63.97;95258.44;5093643;28;20114;-83
2023/03/17 08:48:49;;;;;;;10.95;7.68;;;;;;;4.73;63.86;95224.88;5077140;28;20115;-83
2023/03/17 08:51:15;;;;;;;9.10;6.47;;;;;;;5.05;63.60;95263.53;5093550;28;20546;-83
2023/03/17 08:53:41;;;;;;;26.60;19.42;;;;;;;5.04;63.39;95267.00;5110552;28;20031;-83
2023/03/17 08:56:07;;;;;;;15.10;12.52;;;;;;;4.83;63.02;95246.66;5111609;28;20027;-83
2023/03/17 08:58:33;;;;;;;10.00;7.40;;;;;;;5.02;63.64;95267.09;5093194;28;20027;-83
2023/03/17 09:01:00;;;;;;;6.90;5.28;;;;;;;5.13;63.20;95262.19;5110168;28;20482;-83
2023/03/17 09:03:26;;;;;;;10.05;7.28;;;;;;;4.89;62.70;95218.00;5110106;28;20081;-84
2023/03/17 09:05:51;;;;;;;9.45;7.13;;;;;;;5.01;61.39;95241.41;5093388;28;20044;-83
2023/03/17 09:08:17;;;;;;;8.85;6.00;;;;;;;5.17;61.08;95268.00;5110095;28;20412;-83
2023/03/17 09:10:42;;;;;;;7.82;5.43;;;;;;;5.14;60.46;95261.28;5092999;28;20080;-84
2023/03/17 09:13:09;;;;;;;8.65;5.60;;;;;;;5.09;59.90;95227.22;5076653;28;20122;-83
2023/03/17 09:15:34;;;;;;;7.30;5.40;;;;;;;5.38;60.13;95273.75;5094205;28;20450;-84
2023/03/17 09:18:00;;;;;;;7.85;5.32;;;;;;;5.28;59.97;95267.44;5097330;28;20080;-84
2023/03/17 09:20:25;;;;;;;7.15;5.10;;;;;;;5.12;59.04;95223.63;5080386;28;20059;-83
2023/03/17 09:22:51;;;;;;;7.78;5.95;;;;;;;5.42;59.71;95257.19;5097302;28;20479;-82
2023/03/17 09:25:17;;;;;;;7.90;6.50;;;;;;;5.52;58.54;95267.84;5097441;28;20059;-84
2023/03/17 09:27:43;;;;;;;6.80;4.60;;;;;;;5.65;58.69;95265.38;5097364;28;20116;-82
2023/03/17 09:30:10;;;;;;;5.57;4.10;;;;;;;5.67;57.00;95266.13;5080351;28;20517;-83
2023/03/17 09:32:36;;;;;;;5.82;4.18;;;;;;;5.66;56.09;95265.31;5114446;28;20055;-83
2023/03/17 09:35:02;;;;;;;9.35;6.78;;;;;;;5.72;57.01;95264.13;5097178;28;20420;-84
2023/03/17 09:37:28;;;;;;;7.30;5.47;;;;;;;5.72;57.99;95246.91;5113994;28;20096;-83
2023/03/17 09:39:53;;;;;;;7.18;4.80;;;;;;;5.81;57.16;95258.44;5115329;28;20493;-84
2023/03/17 09:42:22;;;;;;;6.57;4.65;;;;;;;5.82;56.20;95270.41;5096876;28;20081;-84
2023/03/17 09:45:01;;;;;;;7.72;5.63;;;;;;;5.81;56.82;95268.75;5115310;28;20035;-83
2023/03/17 09:47:27;;;;;;;7.53;5.60;;;;;;;5.91;56.97;95261.34;5114031;28;20481;-84
2023/03/17 09:49:57;;;;;;;8.18;5.30;;;;;;;5.92;57.80;95260.41;5115059;28;20035;-84
2023/03/17 09:52:30;;;;;;;8.63;5.30;;;;;;;5.90;57.08;95257.09;5113611;28;20027;-83
2023/03/17 09:54:56;;;;;;;11.60;5.45;;;;;;;5.93;55.98;95264.63;5080288;28;20536;-83
2023/03/17 09:57:36;;;;;;;15.82;9.73;;;;;;;5.77;57.54;95239.75;5096569;28;20036;-83
2023/03/17 10:00:25;;;;;;;9.55;6.38;;;;;;;6.06;57.28;95267.38;5081707;28;20038;-83
2023/03/17 10:02:51;;;;;;;6.93;4.78;;;;;;;5.73;56.39;95240.00;5113677;28;20501;-83
2023/03/17 10:05:30;;;;;;;7.07;5.13;;;;;;;5.90;56.22;95278.53;5096289;28;20086;-83
2023/03/17 10:08:14;;;;;;;8.70;5.45;;;;;;;5.80;56.38;95280.00;5113090;28;20032;-83
2023/03/17 10:10:48;;;;;;;10.02;6.20;;;;;;;5.70;54.46;95281.41;5114587;28;20047;-84
2023/03/17 10:13:41;;;;;;;8.32;5.45;;;;;;;5.72;54.46;95280.41;5114255;28;20511;-83
2023/03/17 10:16:10;;;;;;;8.20;5.88;;;;;;;5.40;55.15;95228.09;5114398;28;20032;-83
2023/03/17 10:19:20;;;;;;;10.85;6.55;;;;;;;5.77;55.36;95277.59;5096271;28;20035;-83
2023/03/17 10:22:05;;;;;;;9.20;6.55;;;;;;;5.55;55.35;95241.88;5090789;28;20043;-82
2023/03/17 10:24:31;;;;;;;7.72;5.15;;;;;;;5.73;55.65;95264.03;5079250;28;20028;-84
2023/03/17 10:26:59;;;;;;;9.05;5.72;;;;;;;5.74;56.04;95236.50;5094613;28;20106;-82
2023/03/17 10:29:24;;;;;;;11.00;6.22;;;;;;;5.89;55.46;95251.09;5095407;28;20558;-84
2023/03/17 10:31:50;;;;;;;8.77;5.63;;;;;;;5.91;54.98;95282.78;5095814;28;20054;-83
2023/03/17 10:34:29;;;;;;;8.05;5.68;;;;;;;5.85;54.97;95271.97;5095677;28;20067;-84
2023/03/17 10:37:03;;;;;;;7.63;5.03;;;;;;;5.74;54.55;95257.97;5094956;28;20058;-84
2023/03/17 10:39:30;;;;;;;11.40;6.07;;;;;;;6.05;54.16;95256.25;5095801;28;20040;-84
2023/03/17 10:42:31;;;;;;;7.70;4.43;;;;;;;6.11;52.43;95265.38;5094897;28;20114;-82
2023/03/17 10:45:24;;;;;;;6.88;4.70;;;;;;;5.85;51.55;95251.34;5112657;28;20107;-83
2023/03/17 10:47:50;;;;;;;12.15;8.65;;;;;;;5.92;52.22;95243.19;5112659;28;20045;-83
2023/03/17 10:50:25;;;;;;;7.75;4.60;;;;;;;5.88;51.95;95233.97;5078782;28;20023;-83
2023/03/17 10:53:02;;;;;;;7.32;4.05;;;;;;;6.10;51.20;95259.41;5095567;28;20481;-83
2023/03/17 10:55:32;;;;;;;6.65;4.60;;;;;;;6.23;51.96;95255.16;5112330;28;20416;-84
2023/03/17 10:58:02;;;;;;;7.03;4.63;;;;;;;6.13;51.90;95224.81;5112358;28;20080;-83
2023/03/17 11:00:28;;;;;;;5.97;4.40;;;;;;;6.35;51.90;95252.78;5095430;28;20031;-83
2023/03/17 11:02:56;;;;;;;5.75;3.95;;;;;;;6.52;51.52;95244.88;5112194;28;20085;-83
2023/03/17 11:05:23;;;;;;;7.78;4.15;;;;;;;6.66;50.22;95242.28;5095261;28;20527;-83
2023/03/17 11:07:49;;;;;;;5.88;4.13;;;;;;;6.47;49.63;95221.91;5112170;28;20023;-83
2023/03/17 11:10:18;;;;;;;9.57;6.28;;;;;;;6.66;49.48;95237.13;5112233;28;20390;-83
2023/03/17 11:12:47;;;;;;;7.20;4.20;;;;;;;6.10;49.37;95197.47;5095027;28;20019;-83
2023/03/17 11:15:16;;;;;;;24.30;15.48;;;;;;;6.16;50.16;95204.84;5095366;28;20172;-83
2023/03/17 11:17:44;;;;;;;57.97;39.10;;;;;;;6.33;50.63;95234.00;5095469;28;20024;-83
2023/03/17 11:20:28;;;;;;;12.27;8.02;;;;;;;6.53;49.86;95230.22;5111730;28;20036;-83
2023/03/17 11:23:16;;;;;;;10.05;7.32;;;;;;;6.55;49.43;95213.72;5094809;28;20493;-84
2023/03/17 11:25:43;;;;;;;6.35;4.40;;;;;;;6.56;48.97;95196.47;5112010;28;20096;-84
2023/03/17 11:28:18;;;;;;;5.60;4.35;;;;;;;6.82;49.16;95206.00;5094774;28;20028;-83
2023/03/17 11:31:07;;;;;;;5.32;3.47;;;;;;;6.90;47.60;95213.28;5111718;28;20043;-83
2023/03/17 11:33:34;;;;;;;7.85;5.13;;;;;;;6.90;48.39;95216.69;5112722;28;20031;-84
2023/03/17 11:36:08;;;;;;;8.57;4.40;;;;;;;6.72;47.59;95197.19;5111928;28;20065;-83
2023/03/17 11:38:40;;;;;;;5.93;4.60;;;;;;;6.55;47.97;95177.56;5077833;28;20521;-83
2023/03/17 11:41:51;;;;;;;25.65;17.17;;;;;;;6.56;48.58;95196.47;5094867;28;20062;-83
2023/03/17 11:44:22;;;;;;;9.82;6.57;;;;;;;6.58;49.13;95213.53;5058164;28;20086;-83
2023/03/17 11:47:07;;;;;;;10.63;6.53;;;;;;;6.19;48.99;95175.47;5052970;28;20098;-83
2023/03/17 11:49:37;;;;;;;17.45;9.90;;;;;;;6.25;50.06;95204.31;5073543;28;20039;-83
2023/03/17 11:52:15;;;;;;;10.07;6.93;;;;;;;6.70;51.03;95207.59;5094407;28;20518;-83
2023/03/17 11:54:56;;;;;;;14.95;8.65;;;;;;;6.84;50.42;95203.34;5112307;28;20035;-83
2023/03/17 11:57:31;;;;;;;11.98;6.60;;;;;;;6.89;49.86;95209.88;5111283;28;20092;-83
2023/03/17 12:00:19;;;;;;;6.28;4.78;;;;;;;7.04;50.18;95205.50;5078530;28;20046;-83
2023/03/17 12:02:49;;;;;;;8.20;5.57;;;;;;;7.28;49.14;95204.91;5111158;28;20077;-83
2023/03/17 12:05:19;;;;;;;9.15;5.68;;;;;;;7.21;49.03;95198.44;5111023;28;20115;-83
2023/03/17 12:08:08;;;;;;;11.88;8.13;;;;;;;7.24;48.66;95204.25;5111086;28;20022;-82
2023/03/17 12:11:07;;;;;;;8.43;5.47;;;;;;;7.02;47.52;95199.63;5110973;28;20059;-83